CDT,Max TemperatureF,Mean TemperatureF,Min TemperatureF,Max Dew PointF,MeanDew PointF,Min DewpointF,Max Humidity, Mean Humidity, Min Humidity, Max Sea Level PressureIn, Mean Sea Level PressureIn, Min Sea Level PressureIn, Max VisibilityMiles, Mean VisibilityMiles, Min VisibilityMiles, Max Wind SpeedMPH, Mean Wind SpeedMPH, Max Gust SpeedMPH,PrecipitationIn, CloudCover, Events, WindDirDegrees
2014-3-1,21,12,3,18,5,-8,86,74,57,30.41,30.26,30.04,10,6,0,17,12,22,0.01,6,Snow,344
2014-3-2,3,-5,-13,-8,-16,-22,66,54,39,30.51,30.46,30.41,10,10,10,18,14,23,0.00,3,,323
2014-3-3,10,-2,-14,5,-11,-24,85,57,44,30.52,30.44,30.31,10,10,1,13,4,,0.00,3,Snow,164
2014-3-4,23,14,5,12,7,0,85,67,50,30.29,30.19,30.12,10,10,1,13,7,15,0.00,4,Snow,125
2014-3-5,23,20,17,14,12,7,86,73,58,30.41,30.34,30.22,10,10,6,16,11,23,0.00,8,Snow,76
2014-3-6,26,20,15,18,14,10,86,76,69,30.38,30.20,29.99,10,10,9,15,9,17,0.00,3,,126
2014-3-7,41,29,17,34,26,14,93,83,65,30.03,29.92,29.85,10,6,2,14,9,,0.00,4,,218
2014-3-8,33,26,17,32,24,16,100,78,56,30.28,30.19,30.04,10,8,2,13,9,16,0.00,5,Snow,334
2014-3-9,41,26,12,34,25,10,93,80,65,30.26,30.01,29.75,10,9,6,17,6,22,0.00,0,,201
2014-3-10,50,42,33,39,35,32,93,75,62,29.76,29.71,29.68,10,10,9,8,4,,0.00,0,,260
2014-3-11,42,37,32,36,33,28,100,83,66,29.84,29.72,29.63,10,10,6,20,5,28,0.00,3,,15
2014-3-12,35,28,21,28,20,16,80,69,55,30.12,29.98,29.81,10,10,10,22,16,29,0.00,3,,325
2014-3-13,50,34,17,39,28,16,93,78,62,30.11,29.94,29.72,10,10,8,17,6,23,0.00,2,,183
2014-3-14,46,40,35,36,33,28,87,72,61,29.92,29.72,29.57,10,10,10,28,14,34,0.00,1,,267
2014-3-15,39,34,28,32,26,23,100,77,56,30.23,30.08,29.93,10,10,2,17,7,24,0.00,6,Snow,23
2014-3-16,30,24,19,28,15,7,93,67,54,30.39,30.28,30.13,10,10,9,18,11,29,0.00,2,,57
2014-3-17,39,28,17,25,18,10,86,68,42,30.12,29.85,29.67,10,10,10,22,11,29,0.00,2,,148
2014-3-18,48,39,30,41,32,25,100,75,58,29.73,29.66,29.57,10,9,3,21,11,28,0.03,2,Rain,120
2014-3-19,41,36,30,41,32,25,100,89,70,30.03,29.81,29.57,10,6,0,23,11,33,0.02,8,Rain,310
2014-3-20,48,37,26,32,26,21,100,71,34,30.06,30.00,29.96,10,9,4,7,1,,0.00,3,,48
2014-3-21,57,42,28,39,31,25,86,70,47,30.00,29.86,29.72,10,10,10,25,9,37,0.00,3,,175
2014-3-22,33,28,21,28,18,9,81,62,38,30.42,30.24,30.01,10,10,10,20,15,26,0.00,5,,323
2014-3-23,28,21,14,14,8,1,80,56,37,30.50,30.43,30.37,10,10,9,16,11,22,0.00,1,,330
2014-3-24,33,26,19,28,19,10,100,73,51,30.39,30.25,30.10,10,9,0,14,3,20,0.00,7,Snow,248
2014-3-25,24,20,15,19,10,7,86,64,50,30.26,30.19,30.09,10,10,9,23,13,31,0.00,3,Snow,304
2014-3-26,42,28,14,23,16,9,93,61,39,30.25,30.08,29.83,10,10,10,28,9,34,0.00,4,,154
2014-3-27,51,42,33,50,39,25,100,92,53,29.82,29.55,29.33,10,6,1,21,16,30,0.29,8,Rain-Snow,159
2014-3-28,41,36,30,41,32,28,100,85,75,30.18,29.96,29.45,10,9,3,21,12,30,0.01,8,Rain,326
2014-3-29,46,38,28,34,31,27,100,79,53,30.26,30.21,30.18,10,8,4,9,2,13,0.00,5,,15
2014-3-30,62,45,28,39,34,28,100,69,37,30.22,30.06,29.90,10,9,5,24,10,31,0.00,0,,153
2014-3-31,66,50,33,48,40,27,81,65,43,29.93,29.73,29.51,10,10,7,32,15,44,0.03,1,Rain,157